createdAt,value
2023-05-21T00:00:20.537Z,26.80
2023-05-21T00:01:20.532Z,27.50
2023-05-21T00:02:20.526Z,27.30
2023-05-21T00:03:20.604Z,28.00
2023-05-21T00:04:20.479Z,27.10
2023-05-21T00:05:20.479Z,26.90
2023-05-21T00:06:20.469Z,27.80
2023-05-21T00:07:20.469Z,28.80
2023-05-21T00:08:20.484Z,28.70
2023-05-21T00:09:20.441Z,28.60
2023-05-21T00:10:20.441Z,27.70
2023-05-21T00:11:20.418Z,29.20
2023-05-21T00:12:20.403Z,28.80
2023-05-21T00:13:20.544Z,28.00
2023-05-21T00:14:20.427Z,29.30
2023-05-21T00:15:20.384Z,29.70
2023-05-21T00:16:20.413Z,28.10
2023-05-21T00:17:20.372Z,28.30
2023-05-21T00:18:20.378Z,27.90
2023-05-21T00:19:20.388Z,27.10
2023-05-21T00:20:20.364Z,27.40
2023-05-21T00:21:20.324Z,31.00
2023-05-21T00:22:20.323Z,28.60
2023-05-21T00:23:20.303Z,27.70
2023-05-21T00:24:20.317Z,27.20
2023-05-21T00:25:20.302Z,28.20
2023-05-21T00:26:20.325Z,26.70
2023-05-21T00:27:20.267Z,29.20
2023-05-21T00:28:20.290Z,29.20
2023-05-21T00:29:20.240Z,29.00
2023-05-21T00:30:20.249Z,27.50
2023-05-21T00:31:20.280Z,28.70
2023-05-21T00:32:20.259Z,30.60
2023-05-21T00:33:20.213Z,29.30
2023-05-21T00:34:20.221Z,28.70
2023-05-21T00:35:20.200Z,29.70
2023-05-21T00:36:20.196Z,28.40
2023-05-21T00:37:20.164Z,29.00
2023-05-21T00:38:20.186Z,30.40
2023-05-21T00:39:20.155Z,29.50
2023-05-21T00:40:20.156Z,27.80
2023-05-21T00:41:20.151Z,28.90
2023-05-21T00:42:20.166Z,29.60
2023-05-21T00:43:20.143Z,31.60
2023-05-21T00:44:20.123Z,29.00
2023-05-21T00:45:20.125Z,30.10
2023-05-21T00:46:20.132Z,31.20
2023-05-21T00:47:20.231Z,29.40
2023-05-21T00:48:20.088Z,28.20
2023-05-21T00:49:20.087Z,28.70
2023-05-21T00:50:20.081Z,30.80
2023-05-21T00:51:20.071Z,31.30
2023-05-21T00:52:20.057Z,29.00
2023-05-21T00:53:20.043Z,29.20
2023-05-21T00:54:20.041Z,29.40
2023-05-21T00:55:20.029Z,30.20
2023-05-21T00:56:20.024Z,29.90
2023-05-21T00:57:20.032Z,30.30
2023-05-21T00:58:20.005Z,30.60
2023-05-21T00:59:19.976Z,30.20
2023-05-21T01:00:19.986Z,29.20
2023-05-21T01:01:19.982Z,31.50
2023-05-21T01:02:20.001Z,30.30
2023-05-21T01:03:20.062Z,30.50
2023-05-21T01:04:19.954Z,30.90
2023-05-21T01:05:19.935Z,29.70
2023-05-21T01:06:19.982Z,30.20
2023-05-21T01:07:19.962Z,31.60
2023-05-21T01:08:19.927Z,29.10
2023-05-21T01:09:19.908Z,30.60
2023-05-21T01:10:19.897Z,30.80
2023-05-21T01:11:19.893Z,30.50
2023-05-21T01:12:19.893Z,30.60
2023-05-21T01:13:19.933Z,30.40
2023-05-21T01:14:19.861Z,30.50
2023-05-21T01:15:19.853Z,31.40
2023-05-21T01:16:19.888Z,31.00
2023-05-21T01:17:19.870Z,32.50
2023-05-21T01:18:19.854Z,30.70
2023-05-21T01:19:19.873Z,30.50
2023-05-21T01:20:19.798Z,29.80
2023-05-21T01:21:19.790Z,31.10
2023-05-21T01:22:19.794Z,30.20
2023-05-21T01:23:19.776Z,31.20
2023-05-21T01:24:19.830Z,32.00
2023-05-21T01:25:19.762Z,31.10
2023-05-21T01:26:19.766Z,33.10
2023-05-21T01:27:19.739Z,30.30
2023-05-21T01:28:19.743Z,31.40
2023-05-21T01:29:19.736Z,32.10
2023-05-21T01:30:19.757Z,31.30
2023-05-21T01:31:19.726Z,31.50
2023-05-21T01:32:19.694Z,33.10
2023-05-21T01:33:19.705Z,31.00
2023-05-21T01:34:19.692Z,32.40
2023-05-21T01:35:19.667Z,33.50
2023-05-21T01:36:19.720Z,33.90
2023-05-21T01:37:19.653Z,33.60
2023-05-21T01:38:19.653Z,32.30
2023-05-21T01:39:19.626Z,31.20
2023-05-21T01:40:19.635Z,33.40
2023-05-21T01:41:19.629Z,34.10
2023-05-21T01:42:19.641Z,32.00
2023-05-21T01:43:19.616Z,31.50
2023-05-21T01:44:19.606Z,29.70
2023-05-21T01:45:19.587Z,32.20
2023-05-21T01:46:19.656Z,35.00
2023-05-21T01:47:19.576Z,34.60
2023-05-21T01:48:19.564Z,31.90
2023-05-21T01:49:19.572Z,31.10
2023-05-21T01:50:19.555Z,32.20
2023-05-21T01:51:19.528Z,32.90
2023-05-21T01:52:19.549Z,34.60
2023-05-21T01:53:19.544Z,33.80
2023-05-21T01:54:19.520Z,31.80
2023-05-21T01:55:19.505Z,32.90
2023-05-21T01:56:19.497Z,35.20
2023-05-21T01:57:19.494Z,32.50
2023-05-21T01:58:19.525Z,34.70
2023-05-21T01:59:19.484Z,33.00
2023-05-21T02:00:19.476Z,33.60
2023-05-21T02:01:19.452Z,34.80
2023-05-21T02:02:19.496Z,34.80
2023-05-21T02:03:19.561Z,33.20
2023-05-21T02:04:19.488Z,33.70
2023-05-21T02:05:19.431Z,32.50
2023-05-21T02:06:19.405Z,34.20
2023-05-21T02:07:19.391Z,33.50
2023-05-21T02:08:19.394Z,35.00
2023-05-21T02:09:19.364Z,34.60
2023-05-21T02:10:19.456Z,33.40
2023-05-21T02:11:19.352Z,35.40
2023-05-21T02:12:19.359Z,35.40
2023-05-21T02:13:19.347Z,32.50
2023-05-21T02:14:19.345Z,35.40
2023-05-21T02:15:19.363Z,34.70
2023-05-21T02:16:19.384Z,34.20
2023-05-21T02:17:19.300Z,32.90
2023-05-21T02:18:19.316Z,35.50
2023-05-21T02:19:19.476Z,34.50
2023-05-21T02:20:19.442Z,33.70
2023-05-21T02:21:19.269Z,34.60
2023-05-21T02:22:19.351Z,34.70
2023-05-21T02:23:19.252Z,35.00
2023-05-21T02:24:19.249Z,34.60
2023-05-21T02:25:19.288Z,34.60
2023-05-21T02:26:19.233Z,34.00
2023-05-21T02:27:19.235Z,35.30
2023-05-21T02:28:19.231Z,34.00
2023-05-21T02:29:19.191Z,32.70
2023-05-21T02:30:19.205Z,36.90
2023-05-21T02:31:19.188Z,35.60
2023-05-21T02:32:19.175Z,34.60
2023-05-21T02:33:19.160Z,35.20
2023-05-21T02:34:19.226Z,34.30
2023-05-21T02:35:19.140Z,33.60
2023-05-21T02:36:19.187Z,34.80
2023-05-21T02:37:19.159Z,34.60
2023-05-21T02:38:19.137Z,35.20
2023-05-21T02:39:19.129Z,35.40
2023-05-21T02:40:19.227Z,36.00
2023-05-21T02:41:19.100Z,34.10
2023-05-21T02:42:19.100Z,33.20
2023-05-21T02:43:19.092Z,37.80
2023-05-21T02:44:19.078Z,36.50
2023-05-21T02:45:19.124Z,34.40
2023-05-21T02:46:19.140Z,36.20
2023-05-21T02:47:19.061Z,35.30
2023-05-21T02:48:19.038Z,36.20
2023-05-21T02:49:19.017Z,36.10
2023-05-21T02:50:19.019Z,34.20
2023-05-21T02:51:19.035Z,34.60
2023-05-21T02:52:19.019Z,35.30
2023-05-21T02:53:18.990Z,35.00
2023-05-21T02:54:19.000Z,38.50
2023-05-21T02:55:18.989Z,36.30
2023-05-21T02:56:19.034Z,37.20
2023-05-21T02:57:19.000Z,35.00
2023-05-21T02:58:18.963Z,36.20
2023-05-21T02:59:18.943Z,37.20
2023-05-21T03:00:18.945Z,35.70
2023-05-21T03:01:18.972Z,35.30
2023-05-21T03:02:19.008Z,37.70
2023-05-21T03:03:19.042Z,36.90
2023-05-21T03:04:18.918Z,35.50
2023-05-21T03:05:18.886Z,36.90
2023-05-21T03:06:18.958Z,38.40
2023-05-21T03:07:18.928Z,36.50
2023-05-21T03:08:18.873Z,38.10
2023-05-21T03:09:18.914Z,36.50
2023-05-21T03:10:19.613Z,35.70
2023-05-21T03:11:18.843Z,36.30
2023-05-21T03:12:18.872Z,37.60
2023-05-21T03:13:18.878Z,37.00
2023-05-21T03:14:18.839Z,39.90
2023-05-21T03:15:18.804Z,36.90
2023-05-21T03:16:18.840Z,39.00
2023-05-21T03:17:18.792Z,39.90
2023-05-21T03:18:18.815Z,38.20
2023-05-21T03:19:18.807Z,37.70
2023-05-21T03:20:18.818Z,38.30
2023-05-21T03:21:18.769Z,37.60
2023-05-21T03:22:18.768Z,38.40
2023-05-21T03:23:18.761Z,38.30
2023-05-21T03:24:18.772Z,38.00
2023-05-21T03:25:18.728Z,35.60
2023-05-21T03:26:18.729Z,38.60
2023-05-21T03:27:18.708Z,38.30
2023-05-21T03:28:18.707Z,37.00
2023-05-21T03:29:18.706Z,38.90
2023-05-21T03:30:18.718Z,39.10
2023-05-21T03:31:18.679Z,38.90
2023-05-21T03:32:18.757Z,37.70
2023-05-21T03:33:18.714Z,38.10
2023-05-21T03:34:18.674Z,37.60
2023-05-21T03:35:18.649Z,37.70
2023-05-21T03:36:18.657Z,38.20
2023-05-21T03:37:18.639Z,40.10
2023-05-21T03:38:18.676Z,38.70
2023-05-21T03:39:18.655Z,37.80
2023-05-21T03:40:18.622Z,37.70
2023-05-21T03:41:18.603Z,38.50
2023-05-21T03:42:18.593Z,38.90
2023-05-21T03:43:18.584Z,39.00
2023-05-21T03:44:18.630Z,37.90
2023-05-21T03:45:18.590Z,39.50
2023-05-21T03:46:18.635Z,40.70
2023-05-21T03:47:18.579Z,38.90
2023-05-21T03:48:18.572Z,38.90
2023-05-21T03:49:18.532Z,39.20
2023-05-21T03:50:18.532Z,39.40
2023-05-21T03:51:18.544Z,39.90
2023-05-21T03:52:18.517Z,39.30
2023-05-21T03:53:18.497Z,41.50
2023-05-21T03:54:18.523Z,39.50
2023-05-21T03:55:18.480Z,42.20
2023-05-21T03:56:18.489Z,40.20
2023-05-21T03:57:18.485Z,39.10
2023-05-21T03:58:18.461Z,40.90
2023-05-21T03:59:18.443Z,40.80
2023-05-21T04:00:18.456Z,39.60
2023-05-21T04:01:18.418Z,39.80
2023-05-21T04:02:18.559Z,39.40
2023-05-21T04:03:18.718Z,40.80
2023-05-21T04:04:19.151Z,39.10
2023-05-21T04:05:18.402Z,38.80
2023-05-21T04:06:18.413Z,40.80
2023-05-21T04:07:18.385Z,39.50
2023-05-21T04:08:18.468Z,41.70
2023-05-21T04:09:18.395Z,39.80
2023-05-21T04:10:18.380Z,41.50
2023-05-21T04:11:18.333Z,39.50
2023-05-21T04:12:19.039Z,42.00
2023-05-21T04:13:18.333Z,39.10
2023-05-21T04:14:18.342Z,40.90
2023-05-21T04:15:18.326Z,39.70
2023-05-21T04:16:18.329Z,40.80
2023-05-21T04:17:18.296Z,39.80
2023-05-21T04:18:18.306Z,38.60
2023-05-21T04:19:18.365Z,41.90
2023-05-21T04:20:18.370Z,39.30
2023-05-21T04:21:18.293Z,40.30
2023-05-21T04:22:18.264Z,39.80
2023-05-21T04:23:18.257Z,39.80
2023-05-21T04:24:18.242Z,40.40
2023-05-21T04:25:18.237Z,40.30
2023-05-21T04:26:18.233Z,41.60
2023-05-21T04:27:18.250Z,39.10
2023-05-21T04:28:18.276Z,41.20
2023-05-21T04:29:18.225Z,39.90
2023-05-21T04:30:18.215Z,40.00
2023-05-21T04:31:18.214Z,40.40
2023-05-21T04:32:18.183Z,41.80
2023-05-21T04:33:18.637Z,40.30
2023-05-21T04:34:18.195Z,40.50
2023-05-21T04:35:18.160Z,41.10
2023-05-21T04:36:18.152Z,39.60
2023-05-21T04:37:18.135Z,38.90
2023-05-21T04:38:18.123Z,42.30
2023-05-21T04:39:18.140Z,39.90
2023-05-21T04:40:18.163Z,39.90
2023-05-21T04:41:18.099Z,39.80
2023-05-21T04:42:18.103Z,41.20
2023-05-21T04:43:18.104Z,40.30
2023-05-21T04:44:18.091Z,42.10
2023-05-21T04:45:18.071Z,40.80
2023-05-21T04:46:18.101Z,39.60
2023-05-21T04:47:18.052Z,43.40
2023-05-21T04:48:18.036Z,39.70
2023-05-21T04:49:18.039Z,39.90
2023-05-21T04:50:18.020Z,39.90
2023-05-21T04:51:18.021Z,42.20
2023-05-21T04:52:17.999Z,38.10
2023-05-21T04:53:18.009Z,40.50
2023-05-21T04:54:17.986Z,38.50
2023-05-21T04:55:17.972Z,37.90
2023-05-21T04:56:17.989Z,42.90
2023-05-21T04:57:17.953Z,39.10
2023-05-21T04:58:18.000Z,39.90
2023-05-21T04:59:17.989Z,39.60
2023-05-21T05:00:17.933Z,39.80
2023-05-21T05:01:17.959Z,39.40
2023-05-21T05:02:17.933Z,38.70
2023-05-21T05:03:18.023Z,38.30
2023-05-21T05:04:17.912Z,38.20
2023-05-21T05:05:17.892Z,40.00
2023-05-21T05:06:18.141Z,40.10
2023-05-21T05:07:17.867Z,38.90
2023-05-21T05:08:17.860Z,40.00
2023-05-21T05:09:17.852Z,40.70
2023-05-21T05:10:17.835Z,38.80
2023-05-21T05:11:17.840Z,40.40
2023-05-21T05:12:17.870Z,38.10
2023-05-21T05:13:17.823Z,38.40
2023-05-21T05:14:17.800Z,38.70
2023-05-21T05:15:17.800Z,40.50
2023-05-21T05:16:17.806Z,39.60
2023-05-21T05:17:17.790Z,39.20
2023-05-21T05:18:17.795Z,36.70
2023-05-21T05:19:17.818Z,38.60
2023-05-21T05:20:17.742Z,38.30
2023-05-21T05:21:17.773Z,37.60
2023-05-21T05:22:17.728Z,36.80
2023-05-21T05:23:17.724Z,38.10
2023-05-21T05:24:17.719Z,38.80
2023-05-21T05:25:17.711Z,36.20
2023-05-21T05:26:17.747Z,37.00
2023-05-21T05:27:17.738Z,35.30
2023-05-21T05:28:17.677Z,38.50
2023-05-21T05:29:17.687Z,38.20
2023-05-21T05:30:17.655Z,36.70
2023-05-21T05:31:17.685Z,37.40
2023-05-21T05:32:17.647Z,37.10
2023-05-21T05:33:17.671Z,38.40
2023-05-21T05:34:17.630Z,39.70
2023-05-21T05:35:17.633Z,37.90
2023-05-21T05:36:17.597Z,37.40
2023-05-21T05:37:17.601Z,38.70
2023-05-21T05:38:17.604Z,36.10
2023-05-21T05:39:17.613Z,39.40
2023-05-21T05:40:17.573Z,39.20
2023-05-21T05:41:17.568Z,39.10
2023-05-21T05:42:17.554Z,37.70
2023-05-21T05:43:17.548Z,39.00
2023-05-21T05:44:17.529Z,36.40
2023-05-21T05:45:17.560Z,36.70
2023-05-21T05:46:17.583Z,38.00
2023-05-21T05:47:17.509Z,37.00
2023-05-21T05:48:17.571Z,39.10
2023-05-21T05:49:17.540Z,37.30
2023-05-21T05:50:17.510Z,37.40
2023-05-21T05:51:17.539Z,38.50
2023-05-21T05:52:17.531Z,37.60
2023-05-21T05:53:17.537Z,38.40
2023-05-21T05:54:17.534Z,39.00
2023-05-21T05:55:17.583Z,38.30
2023-05-21T05:56:17.437Z,36.80
2023-05-21T05:57:17.593Z,37.50
2023-05-21T05:58:17.433Z,36.80
2023-05-21T05:59:17.417Z,37.50
2023-05-21T06:00:17.390Z,38.70
2023-05-21T06:01:17.402Z,36.90
2023-05-21T06:02:17.395Z,39.50
2023-05-21T06:03:17.490Z,37.70
2023-05-21T06:04:17.354Z,38.00
2023-05-21T06:05:17.422Z,37.50
2023-05-21T06:06:17.519Z,37.10
2023-05-21T06:07:17.333Z,36.30
2023-05-21T06:08:17.318Z,37.00
2023-05-21T06:09:17.317Z,38.50
2023-05-21T06:10:17.318Z,36.30
2023-05-21T06:11:17.362Z,39.20
2023-05-21T06:12:17.332Z,37.70
2023-05-21T06:13:17.350Z,38.20
2023-05-21T06:14:17.277Z,38.40
2023-05-21T06:15:17.270Z,37.50
2023-05-21T06:16:17.271Z,40.10
2023-05-21T06:17:17.259Z,38.30
2023-05-21T06:18:17.256Z,38.60
2023-05-21T06:19:17.308Z,36.40
2023-05-21T06:20:17.232Z,37.90
2023-05-21T06:21:17.285Z,36.20
2023-05-21T06:22:17.200Z,36.20
2023-05-21T06:23:17.210Z,35.70
2023-05-21T06:24:17.217Z,37.60
2023-05-21T06:25:17.377Z,36.50
2023-05-21T06:26:17.368Z,37.00
2023-05-21T06:27:17.183Z,35.60
2023-05-21T06:28:17.154Z,36.20
2023-05-21T06:29:17.187Z,36.50
2023-05-21T06:30:17.162Z,37.00
2023-05-21T06:31:17.165Z,35.80
2023-05-21T06:32:17.259Z,36.90
2023-05-21T06:33:17.224Z,36.40
2023-05-21T06:34:17.109Z,36.00
2023-05-21T06:35:17.113Z,36.80
2023-05-21T06:36:17.108Z,38.10
2023-05-21T06:37:17.098Z,38.70
2023-05-21T06:38:17.074Z,36.00
2023-05-21T06:39:17.062Z,37.40
2023-05-21T06:40:17.120Z,36.10
2023-05-21T06:41:17.086Z,36.30
2023-05-21T06:42:17.070Z,37.20
2023-05-21T06:43:17.109Z,35.00
2023-05-21T06:44:17.009Z,36.70
2023-05-21T06:45:17.018Z,34.30
2023-05-21T06:46:17.077Z,35.10
2023-05-21T06:47:17.018Z,37.60
2023-05-21T06:48:17.033Z,35.40
2023-05-21T06:49:16.998Z,38.00
2023-05-21T06:50:16.979Z,34.50
2023-05-21T06:51:17.022Z,36.30
2023-05-21T06:52:17.132Z,34.40
2023-05-21T06:53:16.998Z,36.30
2023-05-21T06:54:16.927Z,37.70
2023-05-21T06:55:16.924Z,35.60
2023-05-21T06:56:16.921Z,35.90
2023-05-21T06:57:16.931Z,35.90
2023-05-21T06:58:16.913Z,35.40
2023-05-21T06:59:16.912Z,34.80
2023-05-21T07:00:16.890Z,34.50
2023-05-21T07:01:17.058Z,36.30
2023-05-21T07:02:16.995Z,33.50
2023-05-21T07:03:16.932Z,35.40
2023-05-21T07:04:16.956Z,32.70
2023-05-21T07:05:16.887Z,32.40
2023-05-21T07:06:16.912Z,33.40
2023-05-21T07:07:16.839Z,32.70
2023-05-21T07:08:16.837Z,32.60
2023-05-21T07:09:16.819Z,34.90
2023-05-21T07:10:16.802Z,33.10
2023-05-21T07:11:16.855Z,34.40
2023-05-21T07:12:16.767Z,30.90
2023-05-21T07:13:16.783Z,32.60
2023-05-21T07:14:16.769Z,32.50
2023-05-21T07:15:16.755Z,32.40
2023-05-21T07:16:16.784Z,32.00
2023-05-21T07:17:16.766Z,32.30
2023-05-21T07:18:16.722Z,30.50
2023-05-21T07:19:16.809Z,31.90
2023-05-21T07:20:16.710Z,31.00
2023-05-21T07:21:16.714Z,29.90
2023-05-21T07:22:16.709Z,31.30
2023-05-21T07:23:16.699Z,33.10
2023-05-21T07:24:16.684Z,31.30
2023-05-21T07:25:16.766Z,30.60
2023-05-21T07:26:16.668Z,28.10
2023-05-21T07:27:25.287Z,31.50
2023-05-21T07:28:17.681Z,32.10
2023-05-21T07:29:16.637Z,32.80
2023-05-21T07:30:16.621Z,30.90
2023-05-21T07:31:16.635Z,29.60
2023-05-21T07:32:16.602Z,30.90
2023-05-21T07:33:16.779Z,29.60
2023-05-21T07:34:16.578Z,30.20
2023-05-21T07:35:16.704Z,29.80
2023-05-21T07:36:16.566Z,30.60
2023-05-21T07:37:16.611Z,31.10
2023-05-21T07:38:16.560Z,30.30
2023-05-21T07:39:16.591Z,30.00
2023-05-21T07:40:16.580Z,32.50
2023-05-21T07:41:18.644Z,32.20
2023-05-21T07:42:16.520Z,31.30
2023-05-21T07:43:16.517Z,31.20
2023-05-21T07:44:16.508Z,30.30
2023-05-21T07:45:16.543Z,30.10
2023-05-21T07:46:16.577Z,31.30
2023-05-21T07:47:16.486Z,29.70
2023-05-21T07:48:16.470Z,31.40
2023-05-21T07:49:16.562Z,30.20
2023-05-21T07:50:16.479Z,29.80
2023-05-21T07:51:16.495Z,31.70
2023-05-21T07:52:16.537Z,30.40
2023-05-21T07:53:16.441Z,29.70
2023-05-21T07:54:16.432Z,30.40
2023-05-21T07:55:16.427Z,29.30
2023-05-21T07:56:16.412Z,29.80
2023-05-21T07:57:16.625Z,30.80
2023-05-21T07:58:16.393Z,30.50
2023-05-21T07:59:16.395Z,29.70
2023-05-21T08:00:16.393Z,27.40
2023-05-21T08:01:16.414Z,30.10
2023-05-21T08:02:16.371Z,27.70
2023-05-21T08:03:16.581Z,26.30
2023-05-21T08:04:16.458Z,27.90
2023-05-21T08:05:16.582Z,26.90
2023-05-21T08:06:16.343Z,26.90
2023-05-21T08:07:16.348Z,27.00
2023-05-21T08:08:16.306Z,28.80
2023-05-21T08:09:16.337Z,27.90
2023-05-21T08:10:19.077Z,26.50
2023-05-21T08:11:16.314Z,26.70
2023-05-21T08:12:16.301Z,27.40
2023-05-21T08:13:16.312Z,25.30
2023-05-21T08:14:16.276Z,25.20
2023-05-21T08:15:16.295Z,26.50
2023-05-21T08:16:16.399Z,27.10
2023-05-21T08:17:16.252Z,26.80
2023-05-21T08:18:16.359Z,28.10
2023-05-21T08:19:16.325Z,26.20
2023-05-21T08:20:16.225Z,27.60
2023-05-21T08:21:16.241Z,27.70
2023-05-21T08:22:16.267Z,26.70
2023-05-21T08:23:16.227Z,25.40
2023-05-21T08:24:16.186Z,26.90
2023-05-21T08:25:16.228Z,25.20
2023-05-21T08:26:16.173Z,26.20
2023-05-21T08:27:16.232Z,24.70
2023-05-21T08:28:16.232Z,24.60
2023-05-21T08:29:16.173Z,25.00
2023-05-21T08:30:16.164Z,23.80
2023-05-21T08:31:16.228Z,24.90
2023-05-21T08:32:16.306Z,25.70
2023-05-21T08:33:16.137Z,25.60
2023-05-21T08:34:16.108Z,25.50
2023-05-21T08:35:16.149Z,24.60
2023-05-21T08:36:16.158Z,23.60
2023-05-21T08:37:16.081Z,23.30
2023-05-21T08:38:16.082Z,25.50
2023-05-21T08:39:16.062Z,25.30
2023-05-21T08:40:16.081Z,24.10
2023-05-21T08:41:16.043Z,24.30
2023-05-21T08:42:25.596Z,23.90
2023-05-21T08:43:17.100Z,24.90
2023-05-21T08:44:16.071Z,22.90
2023-05-21T08:45:16.005Z,23.30
2023-05-21T08:46:16.031Z,22.60
2023-05-21T08:47:16.008Z,23.40
2023-05-21T08:48:16.048Z,24.50
2023-05-21T08:49:15.984Z,24.90
2023-05-21T08:50:15.997Z,24.50
2023-05-21T08:51:15.956Z,23.30
2023-05-21T08:52:16.034Z,23.40
2023-05-21T08:53:27.499Z,23.90
2023-05-21T08:54:16.961Z,23.40
2023-05-21T08:55:15.956Z,23.10
2023-05-21T08:56:15.930Z,22.70
2023-05-21T08:57:15.920Z,23.20
2023-05-21T08:58:15.910Z,22.20
2023-05-21T08:59:15.983Z,22.60
2023-05-21T09:00:15.907Z,23.90
2023-05-21T09:01:15.948Z,22.90
2023-05-21T09:02:15.879Z,21.80
2023-05-21T09:03:15.986Z,22.20
2023-05-21T09:04:20.942Z,23.70
2023-05-21T09:05:16.943Z,22.50
2023-05-21T09:06:15.843Z,22.60
2023-05-21T09:07:15.910Z,21.20
2023-05-21T09:08:15.961Z,21.80
2023-05-21T09:09:15.820Z,21.70
2023-05-21T09:10:15.812Z,21.40
2023-05-21T09:11:15.810Z,21.20
2023-05-21T09:12:15.780Z,21.00
2023-05-21T09:13:15.823Z,22.20
2023-05-21T09:14:15.765Z,21.70
2023-05-21T09:15:15.802Z,23.40
2023-05-21T09:16:15.826Z,21.80
2023-05-21T09:17:15.755Z,21.10
2023-05-21T09:18:15.757Z,21.10
2023-05-21T09:19:15.777Z,21.20
2023-05-21T09:20:15.733Z,19.90
2023-05-21T09:21:15.761Z,21.50
2023-05-21T09:22:15.704Z,21.30
2023-05-21T09:23:15.705Z,20.30
2023-05-21T09:24:15.688Z,21.40
2023-05-21T09:25:15.697Z,21.40
2023-05-21T09:26:15.668Z,21.10
2023-05-21T09:27:15.673Z,19.50
2023-05-21T09:28:15.655Z,21.00
2023-05-21T09:29:15.660Z,21.40
2023-05-21T09:30:15.658Z,21.40
2023-05-21T09:31:15.661Z,19.70
2023-05-21T09:32:15.625Z,20.80
2023-05-21T09:33:15.661Z,21.30
2023-05-21T09:34:15.653Z,20.20
2023-05-21T09:35:15.576Z,19.90
2023-05-21T09:36:15.586Z,20.50
2023-05-21T09:37:26.657Z,19.40
2023-05-21T09:38:16.655Z,18.20
2023-05-21T09:39:15.544Z,19.00
2023-05-21T09:40:15.582Z,19.70
2023-05-21T09:41:17.428Z,20.00
2023-05-21T09:42:15.526Z,19.20
2023-05-21T09:43:15.513Z,21.60
2023-05-21T09:44:15.542Z,18.90
2023-05-21T09:45:15.523Z,18.70
2023-05-21T09:46:15.506Z,19.70
2023-05-21T09:47:15.471Z,17.70
2023-05-21T09:48:15.478Z,19.80
2023-05-21T09:49:15.468Z,19.60
2023-05-21T09:50:15.490Z,19.70
2023-05-21T09:51:15.444Z,18.00
2023-05-21T09:52:15.460Z,20.90
2023-05-21T09:53:15.411Z,19.40
2023-05-21T09:54:15.423Z,20.10
2023-05-21T09:55:15.429Z,20.70
2023-05-21T09:56:15.438Z,19.90
2023-05-21T09:57:15.411Z,19.00
2023-05-21T09:58:15.395Z,18.50
2023-05-21T09:59:15.413Z,21.00
2023-05-21T10:00:16.260Z,20.60
2023-05-21T10:01:15.397Z,21.60
2023-05-21T10:02:15.453Z,23.00
2023-05-21T10:03:15.390Z,20.00
2023-05-21T10:04:15.398Z,20.40
2023-05-21T10:05:15.388Z,20.40
2023-05-21T10:06:15.358Z,20.20
2023-05-21T10:07:15.309Z,18.90
2023-05-21T10:08:15.326Z,19.00
2023-05-21T10:09:15.294Z,19.30
2023-05-21T10:10:15.317Z,18.90
2023-05-21T10:11:15.269Z,19.80
2023-05-21T10:12:15.302Z,19.10
2023-05-21T10:13:15.252Z,20.20
2023-05-21T10:14:15.761Z,19.60
2023-05-21T10:15:15.237Z,19.70
2023-05-21T10:16:15.275Z,20.60
2023-05-21T10:17:15.217Z,18.70
2023-05-21T10:18:15.243Z,19.30
2023-05-21T10:19:15.273Z,19.60
2023-05-21T10:20:15.237Z,19.50
2023-05-21T10:21:15.285Z,19.60
2023-05-21T10:22:15.209Z,18.80
2023-05-21T10:23:15.211Z,19.70
2023-05-21T10:24:15.178Z,19.80
2023-05-21T10:25:15.149Z,18.10
2023-05-21T10:26:15.197Z,18.80
2023-05-21T10:27:15.160Z,19.90
2023-05-21T10:28:15.239Z,17.60
2023-05-21T10:29:16.330Z,18.10
2023-05-21T10:30:15.143Z,16.90
2023-05-21T10:31:15.129Z,18.40
2023-05-21T10:32:15.157Z,18.20
2023-05-21T10:33:15.150Z,17.50
2023-05-21T10:34:15.098Z,17.30
2023-05-21T10:35:15.097Z,17.40
2023-05-21T10:36:15.068Z,17.90
2023-05-21T10:37:15.128Z,18.20
2023-05-21T10:38:15.120Z,17.80
2023-05-21T10:39:15.042Z,18.40
2023-05-21T10:40:15.049Z,17.40
2023-05-21T10:41:15.025Z,17.30
2023-05-21T10:42:15.040Z,17.50
2023-05-21T10:43:15.024Z,17.20
2023-05-21T10:44:15.105Z,16.70
2023-05-21T10:45:14.988Z,17.30
2023-05-21T10:46:15.026Z,17.40
2023-05-21T10:47:14.991Z,17.30
2023-05-21T10:48:15.021Z,16.50
2023-05-21T10:49:14.954Z,15.80
2023-05-21T10:50:14.991Z,17.30
2023-05-21T10:51:14.951Z,16.10
2023-05-21T10:52:14.956Z,16.00
2023-05-21T10:53:14.946Z,17.20
2023-05-21T10:54:14.932Z,17.20
2023-05-21T10:55:14.984Z,18.20
2023-05-21T10:56:14.964Z,16.00
2023-05-21T10:57:14.905Z,17.60
2023-05-21T10:58:14.922Z,16.30
2023-05-21T10:59:14.882Z,17.30
2023-05-21T11:00:14.921Z,16.80
2023-05-21T11:01:14.922Z,16.30
2023-05-21T11:02:14.925Z,17.30
2023-05-21T11:03:14.934Z,19.00
2023-05-21T11:04:14.847Z,16.50
2023-05-21T11:05:14.878Z,17.30
2023-05-21T11:06:14.827Z,17.00
2023-05-21T11:07:14.810Z,16.80
2023-05-21T11:08:15.019Z,17.30
2023-05-21T11:09:14.794Z,17.20
2023-05-21T11:10:14.945Z,17.90
2023-05-21T11:11:14.797Z,16.70
2023-05-21T11:12:14.791Z,15.40
2023-05-21T11:13:14.819Z,16.70
2023-05-21T11:14:14.769Z,16.00
2023-05-21T11:15:14.753Z,16.10
2023-05-21T11:16:14.780Z,15.70
2023-05-21T11:17:14.930Z,16.10
2023-05-21T11:18:14.727Z,16.50
2023-05-21T11:19:14.749Z,16.40
2023-05-21T11:20:14.751Z,16.80
2023-05-21T11:21:14.700Z,16.50
2023-05-21T11:22:14.711Z,15.20
2023-05-21T11:23:14.678Z,16.80
2023-05-21T11:24:14.680Z,16.80
2023-05-21T11:25:14.755Z,17.20
2023-05-21T11:26:14.678Z,16.60
2023-05-21T11:27:14.656Z,15.70
2023-05-21T11:28:14.716Z,15.70
2023-05-21T11:29:14.632Z,15.30
2023-05-21T11:30:14.706Z,15.60
2023-05-21T11:31:14.673Z,15.90
2023-05-21T11:32:14.625Z,16.00
2023-05-21T11:33:14.704Z,15.20
2023-05-21T11:34:14.595Z,15.70
2023-05-21T11:35:14.580Z,16.60
2023-05-21T11:36:14.613Z,15.50
2023-05-21T11:37:14.563Z,16.10
2023-05-21T11:38:14.614Z,15.80
2023-05-21T11:39:14.557Z,17.00
2023-05-21T11:40:14.594Z,16.40
2023-05-21T11:41:14.633Z,15.50
2023-05-21T11:42:14.558Z,16.90
2023-05-21T11:43:14.563Z,15.70
2023-05-21T11:44:14.535Z,16.80
2023-05-21T11:45:14.868Z,16.40
2023-05-21T11:46:14.600Z,16.90
2023-05-21T11:47:14.545Z,16.30
2023-05-21T11:48:14.549Z,15.50
2023-05-21T11:49:14.489Z,17.40
2023-05-21T11:50:14.502Z,16.90
2023-05-21T11:51:14.463Z,17.70
2023-05-21T11:52:14.505Z,16.30
2023-05-21T11:53:14.467Z,16.30
2023-05-21T11:54:14.481Z,15.80
2023-05-21T11:55:14.437Z,16.70
2023-05-21T11:56:14.457Z,16.90
2023-05-21T11:57:14.445Z,18.50
2023-05-21T11:58:14.440Z,16.10
2023-05-21T11:59:16.089Z,16.30
2023-05-21T12:00:14.392Z,17.50
2023-05-21T12:01:14.387Z,17.50
2023-05-21T12:02:14.414Z,16.00
2023-05-21T12:03:14.541Z,18.10
2023-05-21T12:04:14.463Z,16.70
2023-05-21T12:05:14.352Z,18.00
2023-05-21T12:06:14.412Z,15.90
2023-05-21T12:07:14.341Z,17.10
2023-05-21T12:08:14.362Z,16.60
2023-05-21T12:09:14.332Z,15.80
2023-05-21T12:10:14.471Z,15.90
2023-05-21T12:11:14.311Z,17.40
2023-05-21T12:12:14.331Z,17.10
2023-05-21T12:13:14.302Z,15.70
2023-05-21T12:14:14.328Z,16.90
2023-05-21T12:15:14.265Z,15.40
2023-05-21T12:16:14.383Z,16.70
2023-05-21T12:17:14.257Z,18.10
2023-05-21T12:18:14.295Z,17.40
2023-05-21T12:19:14.250Z,16.70
2023-05-21T12:20:14.278Z,17.40
2023-05-21T12:21:14.222Z,16.90
2023-05-21T12:22:14.266Z,17.70
2023-05-21T12:23:14.214Z,17.90
2023-05-21T12:24:14.252Z,17.20
2023-05-21T12:25:14.200Z,17.80
2023-05-21T12:26:14.202Z,17.90
2023-05-21T12:27:14.205Z,17.30
2023-05-21T12:28:14.203Z,16.30
2023-05-21T12:29:14.167Z,18.00
2023-05-21T12:30:14.169Z,18.60
2023-05-21T12:31:14.167Z,17.70
2023-05-21T12:32:14.182Z,19.50
2023-05-21T12:33:14.144Z,17.70
2023-05-21T12:34:14.187Z,18.00
2023-05-21T12:35:14.111Z,17.80
2023-05-21T12:36:14.115Z,17.10
2023-05-21T12:37:14.089Z,17.60
2023-05-21T12:38:14.099Z,16.70
2023-05-21T12:39:14.089Z,17.60
2023-05-21T12:40:14.132Z,18.40
2023-05-21T12:41:14.077Z,18.30
2023-05-21T12:42:14.068Z,18.50
2023-05-21T12:43:14.065Z,18.70
2023-05-21T12:44:14.056Z,16.60
2023-05-21T12:45:14.032Z,18.60
2023-05-21T12:46:14.070Z,17.80
2023-05-21T12:47:14.031Z,18.10
2023-05-21T12:48:14.001Z,18.50
2023-05-21T12:49:14.004Z,18.00
2023-05-21T12:50:14.282Z,20.30
2023-05-21T12:51:13.998Z,19.30
2023-05-21T12:52:14.029Z,18.20